Time;durP1;ratioP1;P1;durP2;ratioP2;P2;SDS_P1;SDS_P2;PMS_P1;PMS_P2;Temp;Humidity;BMP_temperature;BMP_pressure;BME280_temperature;BME280_humidity;BME280_pressure;Samples;Min_cycle;Max_cycle;Signal;HPM_P1;HPM_P2
2023/12/23 00:01:58;;;;;;;9.52;1.80;;;;;;;6.80;100.00;100834.78;5082361;28;20044;-71
2023/12/23 00:04:26;;;;;;;14.82;1.92;;;;;;;6.79;100.00;100827.81;5065495;28;20412;-71
2023/12/23 00:06:53;;;;;;;21.00;2.28;;;;;;;6.77;100.00;100834.81;5065392;28;20496;-72
2023/12/23 00:09:20;;;;;;;7.93;1.50;;;;;;;6.74;100.00;100837.47;5065355;28;20064;-71
2023/12/23 00:11:47;;;;;;;12.45;1.70;;;;;;;6.74;100.00;100848.84;5066541;28;20101;-72
2023/12/23 00:14:14;;;;;;;9.05;1.73;;;;;;;6.72;100.00;100844.47;5065002;28;20052;-74
2023/12/23 00:16:41;;;;;;;9.35;1.40;;;;;;;6.70;100.00;100841.03;5067754;28;20492;-73
2023/12/23 00:19:09;;;;;;;6.60;1.55;;;;;;;6.67;100.00;100834.06;5065162;28;20041;-73
2023/12/23 00:21:36;;;;;;;7.30;1.50;;;;;;;6.67;100.00;100836.69;5071179;28;20735;-73
2023/12/23 00:24:04;;;;;;;13.40;1.80;;;;;;;6.66;100.00;100841.06;5069879;28;20040;-72
2023/12/23 00:26:31;;;;;;;8.65;1.52;;;;;;;6.64;100.00;100842.84;5071446;28;20050;-72
2023/12/23 00:28:58;;;;;;;9.13;1.77;;;;;;;6.63;100.00;100843.72;5086149;28;20127;-72
2023/12/23 00:31:25;;;;;;;8.82;1.75;;;;;;;6.62;100.00;100830.66;5067698;28;20499;-74
2023/12/23 00:33:52;;;;;;;8.52;1.65;;;;;;;6.61;100.00;100835.06;5092552;28;20079;-74
2023/12/23 00:36:20;;;;;;;10.57;1.85;;;;;;;6.62;100.00;100823.66;5058220;28;20084;-73
2023/12/23 00:38:47;;;;;;;12.50;1.38;;;;;;;6.65;100.00;100833.25;5076461;28;20071;-73
2023/12/23 00:41:15;;;;;;;7.40;1.35;;;;;;;6.62;100.00;100821.03;5052479;28;20097;-74
2023/12/23 00:43:42;;;;;;;8.15;1.50;;;;;;;6.61;100.00;100824.56;5085911;28;20047;-75
2023/12/23 00:46:09;;;;;;;12.23;1.73;;;;;;;6.63;100.00;100820.16;5085927;28;20056;-73
2023/12/23 00:48:37;;;;;;;9.90;1.35;;;;;;;6.63;100.00;100806.19;5070552;28;20408;-73
2023/12/23 00:51:05;;;;;;;11.77;1.30;;;;;;;6.64;100.00;100805.31;5085752;28;20041;-72
2023/12/23 00:53:32;;;;;;;8.40;1.27;;;;;;;6.63;100.00;100800.97;5049076;28;20102;-75
2023/12/23 00:56:00;;;;;;;10.50;1.30;;;;;;;6.64;100.00;100806.16;5065596;28;20096;-73
2023/12/23 00:58:27;;;;;;;6.97;1.63;;;;;;;6.64;100.00;100807.94;5069840;28;20054;-72
2023/12/23 01:00:54;;;;;;;11.10;1.85;;;;;;;6.64;100.00;100805.31;5071168;28;20072;-74
2023/12/23 01:03:21;;;;;;;8.43;1.33;;;;;;;6.63;100.00;100799.19;5082124;28;20523;-73
2023/12/23 01:05:48;;;;;;;8.48;1.63;;;;;;;6.65;100.00;100804.44;5059077;28;20047;-73
2023/12/23 01:08:15;;;;;;;12.27;1.50;;;;;;;6.66;100.00;100799.16;5086163;28;20131;-73
2023/12/23 01:10:42;;;;;;;9.75;1.20;;;;;;;6.66;100.00;100804.41;5068077;28;20097;-72
2023/12/23 01:13:10;;;;;;;9.85;1.30;;;;;;;6.65;100.00;100797.44;5069300;28;20040;-72
2023/12/23 01:15:37;;;;;;;8.00;1.25;;;;;;;6.64;100.00;100805.31;5085516;28;20044;-72
2023/12/23 01:18:04;;;;;;;7.57;1.15;;;;;;;6.62;100.00;100792.22;5083385;28;20123;-72
2023/12/23 01:20:31;;;;;;;6.72;1.50;;;;;;;6.62;100.00;100800.09;5078870;28;20049;-71
2023/12/23 01:22:58;;;;;;;6.78;1.30;;;;;;;6.62;100.00;100804.47;5067065;28;20052;-71
2023/12/23 01:25:25;;;;;;;8.82;1.45;;;;;;;6.62;100.00;100801.84;5069552;28;20036;-71
2023/12/23 01:27:52;;;;;;;7.78;1.45;;;;;;;6.62;100.00;100807.94;5069314;28;20109;-71
2023/12/23 01:30:20;;;;;;;7.07;1.25;;;;;;;6.62;100.00;100794.00;5092138;28;20050;-71
2023/12/23 01:32:48;;;;;;;7.22;1.02;;;;;;;6.64;100.00;100784.38;5068285;28;20043;-71
2023/12/23 01:35:15;;;;;;;4.88;1.10;;;;;;;6.62;100.00;100781.75;5100653;28;20044;-71
2023/12/23 01:37:43;;;;;;;6.63;1.15;;;;;;;6.61;100.00;100785.28;5068387;28;20507;-71
2023/12/23 01:40:10;;;;;;;11.02;2.03;;;;;;;6.60;100.00;100780.94;5068557;28;20044;-71
2023/12/23 01:42:37;;;;;;;9.93;1.35;;;;;;;6.61;100.00;100787.91;5068453;28;20454;-71
2023/12/23 01:45:05;;;;;;;11.00;1.30;;;;;;;6.63;100.00;100790.50;5067242;28;20140;-71
2023/12/23 01:47:36;;;;;;;5.75;1.20;;;;;;;6.63;100.00;100786.09;5069766;28;20127;-71
2023/12/23 01:50:04;;;;;;;7.68;1.30;;;;;;;6.63;100.00;100777.38;5069128;28;20518;-71
2023/12/23 01:52:33;;;;;;;13.48;1.52;;;;;;;6.62;100.00;100765.19;5067459;28;20045;-72
2023/12/23 01:55:01;;;;;;;10.25;1.60;;;;;;;6.62;100.00;100759.94;5085591;28;20044;-71
2023/12/23 01:57:28;;;;;;;8.98;1.70;;;;;;;6.62;100.00;100758.16;5071031;28;20047;-71
2023/12/23 01:59:56;;;;;;;9.88;1.50;;;;;;;6.64;100.00;100747.69;5086822;28;20468;-71
2023/12/23 02:02:24;;;;;;;11.05;1.70;;;;;;;6.65;100.00;100752.03;5065793;28;20068;-72
2023/12/23 02:04:51;;;;;;;9.80;1.63;;;;;;;6.67;100.00;100755.47;5068067;28;20115;-71
2023/12/23 02:07:19;;;;;;;8.32;1.80;;;;;;;6.67;100.00;100758.09;5046938;28;20120;-71
2023/12/23 02:09:46;;;;;;;8.65;1.65;;;;;;;6.68;100.00;100747.63;5067927;28;20059;-71
2023/12/23 02:12:43;;;;;;;10.75;1.88;;;;;;;6.72;100.00;100743.19;5070694;28;20083;-73
2023/12/23 02:15:15;;;;;;;9.30;1.75;;;;;;;6.74;100.00;100740.53;5083575;28;20124;-71
2023/12/23 02:17:42;;;;;;;8.48;2.00;;;;;;;6.75;100.00;100732.66;5098892;28;20047;-71
2023/12/23 02:20:10;;;;;;;9.48;1.88;;;;;;;6.77;100.00;100733.47;5082493;28;20045;-71
2023/12/23 02:22:38;;;;;;;7.55;1.83;;;;;;;6.79;100.00;100730.84;5065004;28;20055;-71
2023/12/23 02:25:06;;;;;;;12.20;2.47;;;;;;;6.81;100.00;100723.84;5083819;28;20072;-71
2023/12/23 02:27:54;;;;;;;9.05;2.60;;;;;;;6.82;100.00;100715.06;5069073;28;20045;-71
2023/12/23 02:30:24;;;;;;;7.93;2.50;;;;;;;6.83;100.00;100715.06;5069372;28;20051;-72
2023/12/23 02:32:53;;;;;;;9.80;2.95;;;;;;;6.83;100.00;100709.81;5083208;28;20040;-72
2023/12/23 02:35:26;;;;;;;10.05;2.78;;;;;;;6.83;100.00;100701.97;5068607;28;20064;-72
2023/12/23 02:37:55;;;;;;;13.45;3.17;;;;;;;6.85;100.00;100696.69;5080706;28;20101;-72
2023/12/23 02:40:22;;;;;;;11.27;2.95;;;;;;;6.88;100.00;100699.25;5097481;28;20048;-72
2023/12/23 02:42:49;;;;;;;11.98;3.38;;;;;;;6.90;100.00;100683.50;5077944;28;20193;-72
2023/12/23 02:45:17;;;;;;;11.27;3.20;;;;;;;6.91;100.00;100678.25;5091659;28;20125;-73
2023/12/23 02:47:44;;;;;;;10.52;3.50;;;;;;;6.94;100.00;100672.06;5073335;28;20064;-72
2023/12/23 02:50:11;;;;;;;11.75;3.22;;;;;;;6.96;100.00;100670.31;5050888;28;20063;-71
2023/12/23 02:52:38;;;;;;;15.38;3.78;;;;;;;7.01;100.00;100671.06;5081832;28;20036;-71
2023/12/23 02:55:06;;;;;;;15.25;3.47;;;;;;;7.06;100.00;100663.13;5069232;28;20523;-71
2023/12/23 02:57:34;;;;;;;9.95;3.22;;;;;;;7.12;100.00;100660.41;5083729;28;20071;-71
2023/12/23 03:00:03;;;;;;;14.70;3.28;;;;;;;7.19;100.00;100656.75;5078976;28;20040;-71
2023/12/23 03:02:30;;;;;;;11.93;3.28;;;;;;;7.30;100.00;100656.53;5057185;28;20100;-71
2023/12/23 03:04:57;;;;;;;17.88;3.03;;;;;;;7.40;100.00;100644.97;5067464;28;20094;-71
2023/12/23 03:07:25;;;;;;;12.35;3.05;;;;;;;7.53;100.00;100657.84;5072049;28;20097;-72
2023/12/23 03:09:52;;;;;;;9.18;2.65;;;;;;;7.65;100.00;100661.94;5091917;28;20495;-71
2023/12/23 03:12:19;;;;;;;13.27;2.28;;;;;;;7.73;100.00;100642.53;5064803;28;20136;-71
2023/12/23 03:14:46;;;;;;;11.10;2.60;;;;;;;7.82;100.00;100646.72;5066685;28;20535;-71
2023/12/23 03:17:13;;;;;;;11.88;2.35;;;;;;;7.91;100.00;100645.66;5067786;28;20435;-71
2023/12/23 03:19:42;;;;;;;8.20;2.10;;;;;;;7.97;100.00;100642.03;5066282;28;20048;-72
2023/12/23 03:22:09;;;;;;;12.95;2.20;;;;;;;7.99;100.00;100632.34;5081682;28;20054;-71
2023/12/23 03:24:36;;;;;;;10.20;2.28;;;;;;;7.99;100.00;100634.97;5097962;28;20045;-72
2023/12/23 03:27:03;;;;;;;10.27;2.35;;;;;;;7.96;100.00;100653.41;5066746;28;20040;-72
2023/12/23 03:29:30;;;;;;;11.35;2.47;;;;;;;7.93;100.00;100644.75;5066584;28;20047;-72
2023/12/23 03:31:57;;;;;;;9.88;2.40;;;;;;;7.91;100.00;100633.41;5066239;28;20461;-72
2023/12/23 03:34:24;;;;;;;12.43;2.28;;;;;;;7.93;100.00;100642.13;5082450;28;20137;-72
2023/12/23 03:36:51;;;;;;;12.95;2.25;;;;;;;7.93;100.00;100623.75;5065765;28;20083;-72
2023/12/23 03:39:19;;;;;;;10.27;2.30;;;;;;;7.95;100.00;100628.06;5065030;28;20041;-71
2023/12/23 03:41:45;;;;;;;9.18;2.35;;;;;;;7.93;100.00;100609.72;5063785;28;20579;-71
2023/12/23 03:44:12;;;;;;;8.88;1.98;;;;;;;7.96;100.00;100627.16;5062784;28;20135;-71
2023/12/23 03:46:40;;;;;;;17.35;2.33;;;;;;;7.96;100.00;100620.19;5066052;28;20041;-71
2023/12/23 03:49:07;;;;;;;15.10;2.50;;;;;;;7.99;100.00;100611.34;5066344;28;20562;-71
2023/12/23 03:51:34;;;;;;;10.13;2.22;;;;;;;7.97;100.00;100618.41;5084616;28;20037;-70
2023/12/23 03:54:01;;;;;;;15.30;2.60;;;;;;;7.98;100.00;100594.75;5064719;28;20044;-71
2023/12/23 03:56:28;;;;;;;12.05;2.40;;;;;;;8.01;100.00;100593.81;5067712;28;20048;-71
2023/12/23 03:58:55;;;;;;;15.75;2.70;;;;;;;8.03;100.00;100590.25;5066635;28;20095;-71
2023/12/23 04:01:22;;;;;;;13.55;2.30;;;;;;;8.07;100.00;100605.03;5090343;28;20516;-70
2023/12/23 04:03:50;;;;;;;10.88;2.60;;;;;;;8.12;100.00;100581.28;5081873;28;20060;-71
2023/12/23 04:06:17;;;;;;;9.80;2.35;;;;;;;8.19;100.00;100577.59;5083024;28;20071;-71
2023/12/23 04:08:44;;;;;;;7.63;1.98;;;;;;;8.23;100.00;100558.25;5065994;28;20052;-71
2023/12/23 04:11:11;;;;;;;10.25;1.75;;;;;;;8.27;100.00;100580.06;5049630;28;20126;-71
2023/12/23 04:13:38;;;;;;;8.57;1.65;;;;;;;8.30;100.00;100577.34;5076992;28;20139;-71
2023/12/23 04:16:06;;;;;;;14.27;2.33;;;;;;;8.35;100.00;100582.47;5081760;28;20039;-72
2023/12/23 04:18:33;;;;;;;9.00;2.00;;;;;;;8.40;100.00;100580.59;5066752;28;20134;-70
2023/12/23 04:21:00;;;;;;;12.32;2.30;;;;;;;8.45;100.00;100559.47;5088367;28;20036;-71
2023/12/23 04:23:27;;;;;;;12.00;2.58;;;;;;;8.50;100.00;100563.72;5086305;28;20101;-71
2023/12/23 04:25:55;;;;;;;11.65;2.17;;;;;;;8.52;100.00;100580.31;5081336;28;20594;-71
2023/12/23 04:28:24;;;;;;;6.35;2.30;;;;;;;8.53;100.00;100547.03;5082719;28;20056;-70
2023/12/23 04:30:54;;;;;;;9.55;2.15;;;;;;;8.54;100.00;100559.25;5057323;28;20083;-73
2023/12/23 04:33:23;;;;;;;9.63;1.88;;;;;;;8.54;100.00;100552.25;5056152;28;20118;-70
2023/12/23 04:35:50;;;;;;;10.25;2.22;;;;;;;8.55;100.00;100542.59;5082527;28;20135;-71
2023/12/23 04:38:17;;;;;;;10.30;1.80;;;;;;;8.59;100.00;100546.88;5098357;28;20048;-71
2023/12/23 04:40:44;;;;;;;7.78;2.00;;;;;;;8.61;100.00;100539.78;5084621;28;20044;-71
2023/12/23 04:43:12;;;;;;;11.00;2.00;;;;;;;8.61;100.00;100542.41;5079885;28;20049;-71
2023/12/23 04:45:39;;;;;;;11.75;2.30;;;;;;;8.62;100.00;100545.91;5081435;28;20499;-71
2023/12/23 04:48:07;;;;;;;10.65;1.77;;;;;;;8.62;100.00;100548.56;5081883;28;20067;-71
2023/12/23 04:50:34;;;;;;;9.02;2.40;;;;;;;8.65;100.00;100541.44;5066046;28;20055;-71
2023/12/23 04:53:01;;;;;;;10.05;2.00;;;;;;;8.68;100.00;100538.75;5048396;28;20098;-72
2023/12/23 04:55:28;;;;;;;10.38;2.13;;;;;;;8.67;100.00;100542.28;5065047;28;20051;-72
2023/12/23 04:57:55;;;;;;;7.32;1.83;;;;;;;8.68;100.00;100554.50;5067487;28;20048;-72
2023/12/23 05:00:22;;;;;;;12.07;2.13;;;;;;;8.74;100.00;100557.84;5066843;28;20498;-71
2023/12/23 05:02:50;;;;;;;9.90;2.15;;;;;;;8.75;100.00;100559.59;5071061;28;20451;-71
2023/12/23 05:05:17;;;;;;;6.82;1.52;;;;;;;8.79;100.00;100553.34;5066372;28;20045;-72
2023/12/23 05:07:46;;;;;;;9.68;1.80;;;;;;;8.81;100.00;100543.63;5044899;28;20430;-71
2023/12/23 05:10:13;;;;;;;7.22;1.70;;;;;;;8.83;100.00;100549.72;5061093;28;20036;-72
2023/12/23 05:12:40;;;;;;;12.07;2.08;;;;;;;8.85;100.00;100555.81;5069172;28;20123;-71
2023/12/23 05:15:08;;;;;;;8.38;1.52;;;;;;;8.85;100.00;100542.66;5068021;28;20094;-72
2023/12/23 05:17:35;;;;;;;7.38;1.70;;;;;;;8.86;100.00;100539.13;5070079;28;20068;-71
2023/12/23 05:20:03;;;;;;;9.65;1.85;;;;;;;8.84;100.00;100526.03;5085242;28;20056;-71
2023/12/23 05:22:30;;;;;;;8.38;1.98;;;;;;;8.84;100.00;100512.91;5068477;28;20074;-72
2023/12/23 05:24:58;;;;;;;7.70;1.80;;;;;;;8.84;100.00;100506.75;5082643;28;20044;-71
2023/12/23 05:27:25;;;;;;;10.65;1.95;;;;;;;8.85;100.00;100516.38;5093950;28;20127;-71
2023/12/23 05:29:55;;;;;;;10.85;2.60;;;;;;;8.85;100.00;100505.84;5086016;28;20048;-71
2023/12/23 05:32:22;;;;;;;8.10;1.83;;;;;;;8.85;100.00;100526.88;5068243;28;20044;-71
2023/12/23 05:34:49;;;;;;;7.60;1.80;;;;;;;8.84;100.00;100517.28;5069831;28;20052;-71
2023/12/23 05:37:17;;;;;;;11.10;2.05;;;;;;;8.85;100.00;100508.47;5092708;28;20053;-71
2023/12/23 05:39:47;;;;;;;12.38;2.17;;;;;;;8.85;100.00;100511.13;5054342;28;20662;-70
2023/12/23 05:42:15;;;;;;;9.48;1.73;;;;;;;8.85;100.00;100482.19;5059552;28;20045;-70
2023/12/23 05:44:42;;;;;;;11.93;2.13;;;;;;;8.86;100.00;100499.69;5067230;28;20040;-71
2023/12/23 05:47:09;;;;;;;6.40;2.17;;;;;;;8.88;100.00;100502.28;5062055;28;20047;-71
2023/12/23 05:49:36;;;;;;;11.15;2.30;;;;;;;8.88;100.00;100513.66;5099476;28;20101;-70
2023/12/23 05:52:03;;;;;;;11.23;2.15;;;;;;;8.88;100.00;100502.28;5060157;28;20064;-70
2023/12/23 05:54:30;;;;;;;6.88;1.80;;;;;;;8.90;100.00;100503.09;5094877;28;20045;-70
2023/12/23 05:56:57;;;;;;;8.90;1.80;;;;;;;8.89;100.00;100515.38;5061639;28;20086;-71
2023/12/23 05:59:25;;;;;;;10.15;1.83;;;;;;;8.91;100.00;100520.59;5065522;28;20055;-70
2023/12/23 06:01:52;;;;;;;10.05;2.00;;;;;;;8.91;100.00;100515.34;5093068;28;20062;-71
2023/12/23 06:04:19;;;;;;;10.85;2.15;;;;;;;8.89;100.00;100514.50;5066833;28;20112;-70
2023/12/23 06:06:47;;;;;;;10.07;1.90;;;;;;;8.88;100.00;100525.94;5063637;28;20037;-70
2023/12/23 06:09:15;;;;;;;9.43;1.67;;;;;;;8.88;100.00;100508.41;5066834;28;20044;-70
2023/12/23 06:11:42;;;;;;;12.38;1.90;;;;;;;8.89;100.00;100523.28;5083910;28;20037;-70
2023/12/23 06:14:11;;;;;;;13.00;1.95;;;;;;;8.88;100.00;100500.53;5066240;28;20067;-70
2023/12/23 06:16:40;;;;;;;11.13;2.28;;;;;;;8.86;100.00;100512.84;5068426;28;20040;-70
2023/12/23 06:19:07;;;;;;;10.38;1.90;;;;;;;8.84;100.00;100512.91;5068371;28;20048;-70
2023/12/23 06:21:34;;;;;;;11.63;2.38;;;;;;;8.80;100.00;100513.03;5066191;28;20049;-71
2023/12/23 06:24:02;;;;;;;7.80;2.17;;;;;;;8.79;100.00;100522.66;5082767;28;20062;-72
2023/12/23 06:26:29;;;;;;;8.30;2.25;;;;;;;8.75;100.00;100518.38;5068755;28;20099;-71
2023/12/23 06:28:56;;;;;;;11.05;2.88;;;;;;;8.70;100.00;100504.53;5068250;28;20401;-72
2023/12/23 06:31:23;;;;;;;16.73;5.85;;;;;;;8.63;100.00;100516.13;5067263;28;20128;-72
2023/12/23 06:33:50;;;;;;;12.82;4.50;;;;;;;8.60;100.00;100518.81;5068263;28;20440;-71
2023/12/23 06:36:17;;;;;;;17.67;4.60;;;;;;;8.58;100.00;100502.22;5052762;28;20072;-72
2023/12/23 06:38:44;;;;;;;17.48;4.72;;;;;;;8.55;100.00;100511.91;5056880;28;20487;-71
2023/12/23 06:41:12;;;;;;;31.85;11.73;;;;;;;8.53;100.00;100510.22;5067302;28;20441;-71
2023/12/23 06:43:39;;;;;;;14.60;2.80;;;;;;;8.51;100.00;100498.91;5062776;28;20047;-71
2023/12/23 06:46:19;;;;;;;39.10;11.63;;;;;;;8.48;100.00;100506.88;5063492;28;20135;-71
2023/12/23 06:48:46;;;;;;;42.88;14.23;;;;;;;8.48;100.00;100527.91;5065815;28;20029;-71
2023/12/23 06:51:14;;;;;;;28.70;9.55;;;;;;;8.49;100.00;100516.50;5062435;28;20048;-71
2023/12/23 06:53:41;;;;;;;15.23;2.75;;;;;;;8.46;100.00;100516.53;5067553;28;20142;-71
2023/12/23 06:56:08;;;;;;;18.67;3.78;;;;;;;8.45;100.00;100499.03;5082418;28;20116;-70
2023/12/23 06:58:36;;;;;;;16.58;2.83;;;;;;;8.43;100.00;100509.59;5066724;28;20079;-71
2023/12/23 07:01:03;;;;;;;17.15;4.43;;;;;;;8.44;100.00;100498.19;5066135;28;20048;-71
2023/12/23 07:03:30;;;;;;;24.27;8.63;;;;;;;8.44;100.00;100515.72;5083379;28;20044;-72
2023/12/23 07:05:57;;;;;;;14.80;3.70;;;;;;;8.44;100.00;100473.69;5084005;28;20044;-71
2023/12/23 07:08:25;;;;;;;12.10;4.50;;;;;;;8.44;100.00;100492.06;5066266;28;20062;-72
2023/12/23 07:10:52;;;;;;;13.35;3.22;;;;;;;8.42;100.00;100493.88;5067291;28;20311;-70
2023/12/23 07:13:19;;;;;;;13.90;4.47;;;;;;;8.37;100.00;100517.63;5062864;28;20045;-73
2023/12/23 07:15:46;;;;;;;21.92;8.82;;;;;;;8.38;100.00;100493.09;5067090;28;20068;-72
2023/12/23 07:18:13;;;;;;;10.52;3.38;;;;;;;8.37;100.00;100491.38;5100137;28;20032;-72
2023/12/23 07:20:42;;;;;;;22.55;7.07;;;;;;;8.37;100.00;100513.25;5067120;28;20076;-73
2023/12/23 07:23:09;;;;;;;11.90;3.20;;;;;;;8.39;100.00;100500.91;5063881;28;20048;-72
2023/12/23 07:25:37;;;;;;;15.10;3.33;;;;;;;8.38;100.00;100508.84;5061346;28;20044;-71
2023/12/23 07:28:04;;;;;;;10.15;2.38;;;;;;;8.40;100.00;100513.16;5084277;28;20094;-70
2023/12/23 07:30:32;;;;;;;9.80;2.40;;;;;;;8.42;100.00;100509.63;5058986;28;20048;-72
2023/12/23 07:32:59;;;;;;;13.05;2.58;;;;;;;8.39;100.00;100511.44;5051761;28;20094;-72
2023/12/23 07:35:27;;;;;;;13.30;2.60;;;;;;;8.40;100.00;100510.53;5057130;28;20626;-72
2023/12/23 07:37:54;;;;;;;13.68;2.13;;;;;;;8.42;100.00;100505.25;5079730;28;20037;-72
2023/12/23 07:40:21;;;;;;;12.35;2.35;;;;;;;8.47;100.00;100531.41;5059017;28;20586;-73
2023/12/23 07:42:51;;;;;;;9.98;2.25;;;;;;;8.52;100.00;100516.38;5055291;28;20041;-74
2023/12/23 07:45:18;;;;;;;9.48;2.40;;;;;;;8.55;100.00;100509.28;5059679;28;20501;-71
2023/12/23 07:47:46;;;;;;;11.38;2.30;;;;;;;8.58;100.00;100516.25;5059862;28;20074;-71
2023/12/23 07:50:14;;;;;;;14.45;3.08;;;;;;;8.63;100.00;100529.25;5058329;28;20072;-71
2023/12/23 07:52:41;;;;;;;12.90;2.75;;;;;;;8.64;100.00;100567.78;5063297;28;20068;-71
2023/12/23 07:55:08;;;;;;;10.52;2.72;;;;;;;8.66;100.00;100529.16;5065754;28;20040;-71
2023/12/23 07:57:35;;;;;;;10.35;2.55;;;;;;;8.65;100.00;100530.94;5066557;28;20079;-71
2023/12/23 08:00:06;;;;;;;12.38;2.97;;;;;;;8.68;100.00;100544.00;5063990;28;20420;-71
2023/12/23 08:02:33;;;;;;;20.35;9.70;;;;;;;8.73;100.00;100535.09;5067431;28;20044;-71
2023/12/23 08:05:00;;;;;;;17.08;6.20;;;;;;;8.75;100.00;100531.53;5067600;28;20106;-71
2023/12/23 08:07:27;;;;;;;45.30;21.13;;;;;;;8.79;100.00;100527.91;5055121;28;20044;-71
2023/12/23 08:09:54;;;;;;;20.27;5.82;;;;;;;8.82;100.00;100535.72;5066291;28;20389;-71
2023/12/23 08:12:21;;;;;;;16.77;4.80;;;;;;;8.84;100.00;100539.19;5057053;28;20052;-71
2023/12/23 08:14:48;;;;;;;12.15;3.00;;;;;;;8.90;100.00;100538.16;5058367;28;20046;-73
2023/12/23 08:17:15;;;;;;;15.40;2.65;;;;;;;8.96;100.00;100531.81;5066581;28;20127;-71
2023/12/23 08:19:42;;;;;;;9.48;2.85;;;;;;;8.98;100.00;100532.66;5065343;28;20051;-71
2023/12/23 08:22:10;;;;;;;13.90;2.85;;;;;;;9.00;100.00;100525.59;5082237;28;20051;-72
2023/12/23 08:24:37;;;;;;;10.75;2.33;;;;;;;9.03;100.00;100530.78;5066418;28;20496;-73
2023/12/23 08:27:04;;;;;;;9.73;2.90;;;;;;;9.07;100.00;100548.16;5066379;28;20119;-71
2023/12/23 08:29:31;;;;;;;11.40;2.47;;;;;;;9.06;100.00;100527.19;5066229;28;20037;-70
2023/12/23 08:31:58;;;;;;;12.32;2.10;;;;;;;9.11;100.00;100544.56;5066473;28;20419;-72
2023/12/23 08:34:27;;;;;;;13.10;2.25;;;;;;;9.10;100.00;100565.66;5066689;28;20045;-72
2023/12/23 08:36:54;;;;;;;11.45;2.22;;;;;;;9.14;100.00;100565.50;5062472;28;20044;-72
2023/12/23 08:39:21;;;;;;;15.77;2.78;;;;;;;9.15;100.00;100555.84;5052197;28;20105;-71
2023/12/23 08:41:49;;;;;;;10.57;2.10;;;;;;;9.15;100.00;100566.34;5066577;28;20460;-71
2023/12/23 08:44:16;;;;;;;8.77;1.88;;;;;;;9.23;100.00;100576.66;5064297;28;20047;-71
2023/12/23 08:46:43;;;;;;;10.38;2.40;;;;;;;9.26;100.00;100566.06;5067616;28;20036;-71
2023/12/23 08:49:10;;;;;;;10.90;2.30;;;;;;;9.26;100.00;100571.31;5071281;28;20071;-71
2023/12/23 08:51:38;;;;;;;12.35;1.75;;;;;;;9.29;100.00;100579.97;5071127;28;20420;-71
2023/12/23 08:54:05;;;;;;;12.52;2.25;;;;;;;9.30;100.00;100559.78;5085741;28;20047;-71
2023/12/23 08:56:32;;;;;;;10.57;3.35;;;;;;;9.33;100.00;100572.88;5086465;28;20094;-71
2023/12/23 08:58:59;;;;;;;13.15;2.88;;;;;;;9.34;100.00;100561.44;5087273;28;20041;-71
2023/12/23 09:01:26;;;;;;;7.90;1.98;;;;;;;9.39;100.00;100582.34;5086774;28;20037;-71
2023/12/23 09:03:53;;;;;;;6.55;1.77;;;;;;;9.39;100.00;100584.97;5070911;28;20040;-71
2023/12/23 09:06:21;;;;;;;7.32;1.63;;;;;;;9.42;100.00;100580.47;5071125;28;20041;-71
2023/12/23 09:08:51;;;;;;;5.97;1.63;;;;;;;9.42;100.00;100572.59;5069672;28;20515;-71
2023/12/23 09:11:18;;;;;;;7.68;1.63;;;;;;;9.46;100.00;100595.25;5069474;28;20048;-71
2023/12/23 09:13:45;;;;;;;32.78;13.77;;;;;;;9.48;100.00;100588.19;5071001;28;20078;-73
2023/12/23 09:16:12;;;;;;;5.63;1.73;;;;;;;9.52;100.00;100606.50;5071072;28;20508;-71
2023/12/23 09:18:39;;;;;;;11.88;2.30;;;;;;;9.54;100.00;100594.19;5070305;28;20048;-71
2023/12/23 09:21:07;;;;;;;8.00;1.40;;;;;;;9.54;100.00;100604.72;5070557;28;20588;-71
2023/12/23 09:23:34;;;;;;;8.40;1.85;;;;;;;9.56;100.00;100597.63;5085343;28;20126;-71
2023/12/23 09:26:01;;;;;;;5.45;1.20;;;;;;;9.59;100.00;100606.31;5067743;28;20090;-71
2023/12/23 09:28:28;;;;;;;7.13;1.67;;;;;;;9.58;100.00;100573.00;5069777;28;20554;-71
2023/12/23 09:30:55;;;;;;;12.65;1.73;;;;;;;9.59;100.00;100600.16;5064812;28;20048;-71
2023/12/23 09:33:22;;;;;;;5.90;1.50;;;;;;;9.59;100.00;100627.34;5067740;28;20048;-71
2023/12/23 09:35:50;;;;;;;8.00;1.65;;;;;;;9.61;100.00;100600.97;5052174;28;20048;-71
2023/12/23 09:38:17;;;;;;;8.57;1.80;;;;;;;9.59;100.00;100602.78;5071437;28;20048;-71
2023/12/23 09:40:44;;;;;;;6.80;1.60;;;;;;;9.58;100.00;100591.41;5068484;28;20037;-71
2023/12/23 09:43:13;;;;;;;9.25;1.80;;;;;;;9.56;100.00;100595.84;5101703;28;20037;-70
2023/12/23 09:45:42;;;;;;;7.07;1.50;;;;;;;9.57;100.00;100605.47;5069540;28;20048;-70
2023/12/23 09:48:10;;;;;;;10.23;1.38;;;;;;;9.56;100.00;100602.91;5070230;28;20143;-71
2023/12/23 09:50:37;;;;;;;5.38;1.83;;;;;;;9.54;100.00;100613.44;5070417;28;20076;-70
2023/12/23 09:53:06;;;;;;;9.18;1.73;;;;;;;9.54;100.00;100618.72;5068894;28;20139;-70
2023/12/23 09:55:36;;;;;;;7.28;1.40;;;;;;;9.55;100.00;100614.34;5068922;28;20087;-71
2023/12/23 09:58:03;;;;;;;7.70;1.50;;;;;;;9.55;100.00;100632.75;5084910;28;20033;-70
2023/12/23 10:00:30;;;;;;;8.65;1.63;;;;;;;9.55;100.00;100620.44;5056692;28;20124;-70
2023/12/23 10:02:58;;;;;;;6.57;1.55;;;;;;;9.56;100.00;100622.16;5061794;28;20045;-71
2023/12/23 10:05:27;;;;;;;10.60;2.08;;;;;;;9.54;100.00;100617.88;5063331;28;20255;-70
2023/12/23 10:07:59;;;;;;;8.00;1.95;;;;;;;9.55;100.00;100609.06;5086549;28;20131;-70
2023/12/23 10:10:26;;;;;;;6.63;1.80;;;;;;;9.55;100.00;100646.75;5064105;28;20048;-70
2023/12/23 10:12:54;;;;;;;8.77;1.70;;;;;;;9.56;100.00;100637.97;5067158;28;20123;-72
2023/12/23 10:15:21;;;;;;;8.50;1.63;;;;;;;9.59;100.00;100626.47;5067915;28;20037;-70
2023/12/23 10:17:49;;;;;;;11.05;2.08;;;;;;;9.57;100.00;100600.22;5070050;28;20555;-70
2023/12/23 10:20:16;;;;;;;10.30;1.95;;;;;;;9.59;100.00;100610.69;5056383;28;20037;-71
2023/12/23 10:22:44;;;;;;;8.43;2.08;;;;;;;9.60;100.00;100649.25;5095947;28;20535;-70
2023/12/23 10:25:13;;;;;;;12.95;2.70;;;;;;;9.62;100.00;100624.59;5069413;28;20102;-71
2023/12/23 10:27:42;;;;;;;11.27;2.17;;;;;;;9.64;100.00;100628.06;5085918;28;20049;-70
2023/12/23 10:30:12;;;;;;;11.07;2.10;;;;;;;9.64;100.00;100625.44;5067454;28;20064;-71
2023/12/23 10:32:39;;;;;;;9.60;1.70;;;;;;;9.64;100.00;100630.69;5068156;28;20054;-70
2023/12/23 10:35:07;;;;;;;9.75;1.73;;;;;;;9.66;100.00;100617.50;5084724;28;20051;-71
2023/12/23 10:37:42;;;;;;;8.35;1.90;;;;;;;9.69;100.00;100620.03;5067637;28;20056;-71
2023/12/23 10:40:20;;;;;;;6.88;1.20;;;;;;;9.71;100.00;100618.22;5057262;28;20048;-71
2023/12/23 10:42:49;;;;;;;7.00;1.52;;;;;;;9.71;100.00;100622.63;5065838;28;20040;-71
2023/12/23 10:45:19;;;;;;;8.63;1.65;;;;;;;9.71;100.00;100623.47;5060962;28;20052;-70
2023/12/23 10:47:49;;;;;;;5.45;1.58;;;;;;;9.80;100.00;100622.34;5063601;28;20120;-71
2023/12/23 10:50:18;;;;;;;9.27;1.63;;;;;;;9.78;100.00;100638.16;5064498;28;20037;-71
2023/12/23 10:52:45;;;;;;;7.32;1.40;;;;;;;9.81;100.00;100613.53;5069580;28;20433;-71
2023/12/23 10:55:14;;;;;;;8.30;1.73;;;;;;;9.83;100.00;100618.75;5068376;28;20059;-71
2023/12/23 10:57:44;;;;;;;8.43;1.75;;;;;;;9.84;100.00;100609.94;5067514;28;20573;-70
2023/12/23 11:00:13;;;;;;;11.30;1.60;;;;;;;9.83;100.00;100624.88;5067421;28;20075;-70
2023/12/23 11:02:41;;;;;;;9.98;1.92;;;;;;;9.86;100.00;100637.09;5062777;28;20090;-70
2023/12/23 11:05:12;;;;;;;8.73;1.80;;;;;;;9.90;100.00;100634.31;5068313;28;20052;-70
2023/12/23 11:07:48;;;;;;;8.75;1.70;;;;;;;9.94;100.00;100629.81;5067737;28;20415;-70
2023/12/23 11:10:17;;;;;;;10.40;2.20;;;;;;;9.96;100.00;100635.91;5067178;28;20041;-70
2023/12/23 11:12:44;;;;;;;9.07;1.48;;;;;;;9.95;100.00;100640.28;5084025;28;20041;-70
2023/12/23 11:15:11;;;;;;;8.77;1.67;;;;;;;9.98;100.00;100646.38;5078846;28;20041;-70
2023/12/23 11:17:45;;;;;;;9.88;1.70;;;;;;;10.00;100.00;100641.94;5066716;28;20127;-71
2023/12/23 11:20:31;;;;;;;9.43;1.45;;;;;;;10.05;99.69;100640.00;5061567;28;20052;-70
2023/12/23 11:23:29;;;;;;;4.72;1.33;;;;;;;10.04;99.99;100660.22;5091197;28;20044;-70
2023/12/23 11:25:57;;;;;;;7.25;1.30;;;;;;;10.06;99.11;100642.63;5092777;28;20048;-72